createdAt,value
2022-09-21T00:01:07.578Z,6.80
2022-09-21T00:03:35.668Z,3.20
2022-09-21T00:06:06.154Z,5.50
2022-09-21T00:08:34.321Z,3.23
2022-09-21T00:11:03.395Z,4.50
2022-09-21T00:13:33.381Z,4.27
2022-09-21T00:16:01.464Z,2.90
2022-09-21T00:18:29.719Z,3.97
2022-09-21T00:20:57.517Z,6.83
2022-09-21T00:23:26.965Z,3.70
2022-09-21T00:26:04.429Z,4.07
2022-09-21T00:28:32.249Z,4.30
2022-09-21T00:31:03.373Z,4.10
2022-09-21T00:33:31.329Z,4.80
2022-09-21T00:36:04.796Z,3.50
2022-09-21T00:38:35.111Z,6.83
2022-09-21T00:41:03.508Z,5.23
2022-09-21T00:43:34.371Z,3.03
2022-09-21T00:46:06.023Z,3.73
2022-09-21T00:48:34.849Z,3.47
2022-09-21T00:51:05.992Z,2.93
2022-09-21T00:53:35.610Z,3.30
2022-09-21T00:56:05.766Z,3.43
2022-09-21T00:58:38.098Z,2.87
2022-09-21T01:01:06.162Z,3.03
2022-09-21T01:03:34.495Z,2.30
2022-09-21T01:06:02.357Z,3.77
2022-09-21T01:08:31.031Z,3.13
2022-09-21T01:11:27.702Z,2.70
2022-09-21T01:14:16.163Z,2.73
2022-09-21T01:16:53.186Z,6.27
2022-09-21T01:19:39.093Z,3.73
2022-09-21T01:22:15.065Z,3.10
2022-09-21T01:24:55.258Z,3.70
2022-09-21T01:27:50.412Z,2.97
2022-09-21T01:30:22.258Z,3.30
2022-09-21T01:32:56.700Z,5.73
2022-09-21T01:35:29.397Z,4.10
2022-09-21T01:38:00.432Z,3.07
2022-09-21T01:40:35.590Z,2.70
2022-09-21T01:43:06.613Z,3.40
2022-09-21T01:45:40.204Z,4.97
2022-09-21T01:48:09.207Z,2.90
2022-09-21T01:50:42.397Z,3.60
2022-09-21T01:53:16.479Z,3.70
2022-09-21T01:55:49.896Z,4.20
2022-09-21T01:58:21.774Z,2.30
2022-09-21T02:00:55.639Z,4.30
2022-09-21T02:03:28.332Z,3.30
2022-09-21T02:05:58.196Z,2.70
2022-09-21T02:08:27.704Z,3.83
2022-09-21T02:10:56.788Z,2.70
2022-09-21T02:13:27.576Z,3.73
2022-09-21T02:16:12.454Z,4.57
2022-09-21T02:18:54.932Z,3.93
2022-09-21T02:21:29.649Z,5.00
2022-09-21T02:24:09.500Z,2.57
2022-09-21T02:26:44.737Z,3.23
2022-09-21T02:29:21.285Z,2.80
2022-09-21T02:31:56.387Z,5.57
2022-09-21T02:34:33.307Z,2.50
2022-09-21T02:37:08.401Z,4.93
2022-09-21T02:39:43.948Z,2.77
2022-09-21T02:42:16.347Z,3.80
2022-09-21T02:44:48.745Z,4.17
2022-09-21T02:47:23.214Z,5.07
2022-09-21T02:49:54.990Z,6.63
2022-09-21T02:52:23.362Z,4.67
2022-09-21T02:54:54.349Z,5.23
2022-09-21T02:57:24.520Z,4.30
2022-09-21T02:59:53.275Z,4.60
2022-09-21T03:02:22.407Z,3.57
2022-09-21T03:04:50.565Z,4.07
2022-09-21T03:07:18.989Z,5.30
2022-09-21T03:09:46.806Z,3.40
2022-09-21T03:12:14.689Z,3.07
2022-09-21T03:14:42.824Z,3.60
2022-09-21T03:17:10.658Z,7.00
2022-09-21T03:19:40.617Z,4.90
2022-09-21T03:22:08.403Z,4.47
2022-09-21T03:24:48.020Z,2.80
2022-09-21T03:27:16.819Z,4.20
2022-09-21T03:29:44.832Z,3.07
2022-09-21T03:32:13.757Z,4.37
2022-09-21T03:34:43.171Z,3.30
2022-09-21T03:37:11.709Z,4.17
2022-09-21T03:39:39.518Z,3.40
2022-09-21T03:42:09.078Z,2.20
2022-09-21T03:44:38.147Z,2.73
2022-09-21T03:47:06.654Z,3.97
2022-09-21T03:49:35.013Z,3.87
2022-09-21T03:52:04.748Z,3.00
2022-09-21T03:54:32.593Z,4.20
2022-09-21T03:57:00.416Z,3.50
2022-09-21T03:59:28.307Z,4.47
2022-09-21T04:01:56.100Z,6.97
2022-09-21T04:04:23.997Z,12.33
2022-09-21T04:06:51.954Z,8.83
2022-09-21T04:09:21.105Z,4.90
2022-09-21T04:11:49.148Z,3.97
2022-09-21T04:14:17.594Z,7.97
2022-09-21T04:16:45.408Z,3.33
2022-09-21T04:19:13.492Z,3.87
2022-09-21T04:21:41.318Z,5.07
2022-09-21T04:24:09.171Z,5.90
2022-09-21T04:26:39.624Z,13.00
2022-09-21T04:29:07.516Z,11.30
2022-09-21T04:31:35.460Z,9.07
2022-09-21T04:34:03.265Z,5.33
2022-09-21T04:36:36.423Z,3.87
2022-09-21T04:39:05.611Z,4.23
2022-09-21T04:41:34.124Z,3.23
2022-09-21T04:44:03.648Z,5.50
2022-09-21T04:46:31.614Z,3.97
2022-09-21T04:48:59.530Z,20.13
2022-09-21T04:51:27.454Z,25.73
2022-09-21T04:53:55.291Z,7.30
2022-09-21T04:56:23.125Z,3.53
2022-09-21T04:58:50.994Z,4.47
2022-09-21T05:01:20.260Z,4.87
2022-09-21T05:03:48.206Z,3.63
2022-09-21T05:06:16.109Z,4.07
2022-09-21T05:09:01.360Z,9.80
2022-09-21T05:11:29.206Z,12.93
2022-09-21T05:13:57.092Z,12.57
2022-09-21T05:16:26.398Z,7.43
2022-09-21T05:18:55.944Z,8.10
2022-09-21T05:21:24.129Z,6.73
2022-09-21T05:23:52.009Z,6.80
2022-09-21T05:26:20.112Z,5.57
2022-09-21T05:28:48.579Z,7.00
2022-09-21T05:31:42.134Z,4.20
2022-09-21T05:34:39.309Z,4.43
2022-09-21T05:37:15.123Z,4.33
2022-09-21T05:39:43.544Z,3.97
2022-09-21T05:42:12.621Z,13.57
2022-09-21T05:44:40.963Z,8.47
2022-09-21T05:47:24.000Z,6.07
2022-09-21T05:50:01.516Z,3.27
2022-09-21T05:52:35.635Z,5.87
2022-09-21T05:55:10.641Z,4.77
2022-09-21T05:57:46.773Z,6.17
2022-09-21T06:00:18.800Z,4.70
2022-09-21T06:03:16.918Z,3.43
2022-09-21T06:05:45.860Z,4.47
2022-09-21T06:08:13.720Z,3.80
2022-09-21T06:10:41.742Z,2.63
2022-09-21T06:13:09.574Z,2.57
2022-09-21T06:15:38.300Z,4.77
2022-09-21T06:18:07.984Z,3.13
2022-09-21T06:20:36.109Z,3.20
2022-09-21T06:23:04.019Z,3.70
2022-09-21T06:25:32.034Z,3.70
2022-09-21T06:28:04.382Z,3.57
2022-09-21T06:30:33.191Z,3.40
2022-09-21T06:33:02.055Z,4.37
2022-09-21T06:35:32.347Z,3.30
2022-09-21T06:38:00.448Z,5.03
2022-09-21T06:40:28.864Z,4.83
2022-09-21T06:42:58.574Z,3.60
2022-09-21T06:45:26.848Z,5.37
2022-09-21T06:47:54.738Z,4.80
2022-09-21T06:50:22.979Z,3.67
2022-09-21T06:52:52.209Z,8.97
2022-09-21T06:55:20.082Z,5.20
2022-09-21T06:57:48.065Z,4.20
2022-09-21T07:00:16.475Z,4.23
2022-09-21T07:02:45.583Z,3.87
2022-09-21T07:05:14.182Z,4.23
2022-09-21T07:07:41.987Z,3.70
2022-09-21T07:10:15.912Z,4.43
2022-09-21T07:12:46.422Z,5.00
2022-09-21T07:15:15.415Z,5.87
2022-09-21T07:17:51.691Z,5.77
2022-09-21T07:20:20.033Z,6.10
2022-09-21T07:22:47.894Z,6.70
2022-09-21T07:25:17.363Z,5.07
2022-09-21T07:27:45.240Z,5.40
2022-09-21T07:30:13.518Z,6.13
2022-09-21T07:32:41.389Z,8.83
2022-09-21T07:35:09.566Z,7.47
2022-09-21T07:37:37.412Z,9.07
2022-09-21T07:40:06.262Z,6.83
2022-09-21T07:42:35.522Z,5.63
2022-09-21T07:45:04.372Z,5.47
2022-09-21T07:47:32.691Z,8.70
2022-09-21T07:50:00.635Z,5.43
2022-09-21T07:52:28.904Z,6.10
2022-09-21T07:54:56.808Z,5.20
2022-09-21T07:57:41.915Z,8.33
2022-09-21T08:55:19.815Z,3.10
2022-09-21T09:00:17.724Z,2.05
2022-09-21T09:03:10.403Z,2.63
2022-09-21T09:05:47.927Z,2.93
2022-09-21T09:08:33.794Z,1.80
2022-09-21T09:11:13.172Z,3.30
2022-09-21T09:14:00.930Z,1.97
2022-09-21T09:16:37.055Z,5.90
2022-09-21T09:19:19.415Z,2.40
2022-09-21T09:21:48.743Z,1.10
2022-09-21T09:24:20.523Z,1.47
2022-09-21T09:26:53.652Z,6.57
2022-09-21T09:29:29.730Z,2.57
2022-09-21T09:32:00.272Z,3.93
2022-09-21T09:34:33.178Z,4.07
2022-09-21T09:37:11.129Z,1.87
2022-09-21T09:39:39.632Z,1.77
2022-09-21T09:42:34.408Z,1.50
2022-09-21T09:45:21.944Z,1.87
2022-09-21T09:48:13.015Z,0.80
2022-09-21T09:50:42.731Z,1.10
2022-09-21T09:53:15.299Z,2.60
2022-09-21T09:55:46.748Z,1.47
2022-09-21T09:58:19.747Z,2.20
2022-09-21T10:00:48.930Z,1.10
2022-09-21T10:03:19.399Z,1.57
2022-09-21T10:05:47.546Z,2.00
2022-09-21T10:08:43.006Z,0.90
2022-09-21T10:11:12.813Z,1.60
2022-09-21T10:13:42.350Z,2.03
2022-09-21T10:16:15.163Z,1.37
2022-09-21T10:18:48.431Z,2.50
2022-09-21T10:21:22.170Z,2.03
2022-09-21T10:23:55.017Z,2.37
2022-09-21T10:26:23.245Z,0.90
2022-09-21T10:28:59.351Z,1.77
2022-09-21T10:31:29.886Z,1.83
2022-09-21T10:34:08.418Z,1.63
2022-09-21T10:36:37.760Z,0.87
2022-09-21T10:39:22.635Z,0.80
2022-09-21T10:41:53.542Z,1.23
2022-09-21T10:44:23.818Z,1.37
2022-09-21T10:46:52.694Z,2.50
2022-09-21T10:49:25.712Z,1.87
2022-09-21T10:51:58.404Z,2.63
2022-09-21T10:54:30.612Z,2.20
2022-09-21T10:57:03.248Z,1.53
2022-09-21T10:59:32.953Z,1.83
2022-09-21T11:02:02.930Z,2.67
2022-09-21T11:04:40.216Z,2.20
2022-09-21T11:07:18.724Z,3.57
2022-09-21T11:09:55.415Z,2.13
2022-09-21T11:12:42.365Z,0.70
2022-09-21T11:15:21.767Z,2.20
2022-09-21T11:17:53.246Z,0.93
2022-09-21T11:20:29.241Z,1.40
2022-09-21T11:23:05.189Z,0.80
2022-09-21T11:25:44.228Z,1.30
2022-09-21T11:28:17.743Z,0.80
2022-09-21T11:31:08.158Z,1.23
2022-09-21T11:33:55.688Z,0.97
2022-09-21T11:36:34.351Z,1.13
2022-09-21T11:39:07.395Z,0.60
2022-09-21T11:42:05.382Z,1.00
2022-09-21T11:44:49.210Z,0.93
2022-09-21T11:47:33.320Z,0.97
2022-09-21T11:50:30.379Z,1.23
2022-09-21T11:53:14.374Z,3.57
2022-09-21T11:56:01.214Z,0.70
2022-09-21T11:58:39.569Z,2.27
2022-09-21T12:01:20.054Z,7.70
2022-09-21T12:04:16.934Z,1.08
2022-09-21T12:06:54.697Z,2.67
2022-09-21T12:09:55.010Z,1.00
2022-09-21T12:12:28.171Z,1.55
2022-09-21T12:15:04.789Z,0.65
2022-09-21T12:17:44.543Z,1.05
2022-09-21T12:20:18.175Z,1.17
2022-09-21T12:22:48.324Z,0.40
2022-09-21T12:25:19.543Z,0.65
2022-09-21T12:27:51.734Z,0.60
2022-09-21T12:30:23.072Z,0.65
2022-09-21T12:32:57.925Z,3.35
2022-09-21T12:35:31.627Z,0.57
2022-09-21T12:38:05.043Z,2.40
2022-09-21T12:40:39.790Z,1.73
2022-09-21T12:43:18.009Z,0.90
2022-09-21T12:45:53.445Z,0.82
2022-09-21T12:50:56.926Z,0.98
2022-09-21T12:53:28.232Z,1.15
2022-09-21T12:56:09.498Z,0.93
2022-09-21T12:59:05.557Z,0.75
2022-09-21T13:01:43.392Z,1.30
2022-09-21T13:04:34.344Z,1.10
2022-09-21T13:07:21.493Z,1.23
2022-09-21T13:09:51.604Z,1.95
2022-09-21T13:12:23.971Z,1.00
2022-09-21T13:14:55.683Z,1.05
2022-09-21T13:17:28.889Z,2.50
2022-09-21T13:19:59.803Z,0.82
2022-09-21T13:22:31.294Z,0.60
2022-09-21T13:25:03.045Z,5.90
2022-09-21T13:28:04.191Z,1.23
2022-09-21T13:30:36.165Z,1.02
2022-09-21T13:33:26.372Z,1.48
2022-09-21T13:36:06.074Z,1.10
2022-09-21T13:38:37.349Z,0.70
2022-09-21T13:41:35.447Z,0.98
2022-09-21T13:44:41.421Z,1.45
2022-09-21T13:47:11.321Z,1.10
2022-09-21T13:49:53.942Z,1.40
2022-09-21T13:52:32.560Z,0.88
2022-09-21T13:55:04.061Z,1.10
2022-09-21T13:57:37.837Z,1.33
2022-09-21T14:00:40.487Z,2.90
2022-09-21T14:05:51.760Z,1.50
2022-09-21T17:10:36.649Z,0.93
2022-09-21T17:13:08.637Z,0.87
2022-09-21T17:15:41.289Z,2.20
2022-09-21T17:18:11.603Z,1.43
2022-09-21T17:20:41.817Z,1.73
2022-09-21T17:23:10.146Z,1.17
2022-09-21T17:25:38.354Z,1.50
2022-09-21T17:28:25.997Z,3.93
2022-09-21T17:30:55.604Z,7.53
2022-09-21T17:33:25.310Z,1.73
2022-09-21T17:35:55.634Z,1.37
2022-09-21T17:38:23.507Z,1.20
2022-09-21T17:43:39.244Z,2.30
2022-09-21T17:46:14.399Z,6.40
2022-09-21T17:48:42.892Z,2.60
2022-09-21T17:56:23.311Z,1.10
2022-09-21T17:58:57.939Z,3.50
2022-09-21T18:01:34.815Z,2.40
2022-09-21T18:04:03.538Z,3.00
2022-09-21T18:06:31.931Z,2.93
2022-09-21T18:09:00.178Z,1.40
2022-09-21T18:11:47.613Z,1.93
2022-09-21T18:14:25.396Z,1.83
2022-09-21T18:17:06.414Z,2.13
2022-09-21T18:19:45.358Z,2.83
2022-09-21T18:22:20.045Z,2.47
2022-09-21T18:24:48.557Z,1.87
2022-09-21T18:27:19.241Z,2.83
2022-09-21T18:29:47.559Z,1.33
2022-09-21T18:32:39.530Z,3.20
2022-09-21T18:35:28.237Z,1.60
2022-09-21T18:38:05.680Z,2.73
2022-09-21T18:40:40.037Z,1.33
2022-09-21T18:43:22.610Z,1.80
2022-09-21T18:46:01.814Z,1.87
2022-09-21T18:48:42.034Z,14.10
2022-09-21T18:51:19.073Z,10.50
2022-09-21T18:53:52.110Z,5.30
2022-09-21T18:56:20.408Z,5.47
2022-09-21T18:58:49.619Z,8.43
2022-09-21T19:01:20.108Z,6.63
2022-09-21T19:03:57.878Z,7.07
2022-09-21T19:06:37.486Z,13.17
2022-09-21T19:09:17.939Z,20.43
2022-09-21T19:11:52.915Z,10.93
2022-09-21T19:14:27.902Z,7.67
2022-09-21T19:17:07.610Z,7.20
2022-09-21T19:19:45.527Z,4.27
2022-09-21T19:22:17.182Z,7.73
2022-09-21T19:24:57.213Z,8.93
2022-09-21T19:27:34.233Z,7.37
2022-09-21T19:30:09.366Z,2.80
2022-09-21T19:32:41.928Z,4.77
2022-09-21T19:35:21.700Z,2.67
2022-09-21T19:37:50.807Z,11.33
2022-09-21T19:40:20.282Z,3.67
2022-09-21T19:43:00.096Z,5.37
2022-09-21T19:45:33.071Z,6.70
2022-09-21T19:48:05.699Z,4.60
2022-09-21T19:50:41.549Z,4.27
2022-09-21T19:53:29.824Z,6.07
2022-09-21T19:56:16.364Z,3.87
2022-09-21T19:59:02.188Z,3.67
2022-09-21T20:01:31.308Z,4.63
2022-09-21T20:03:59.565Z,5.50
2022-09-21T20:06:36.288Z,3.10
2022-09-21T20:09:12.270Z,2.87
2022-09-21T20:11:47.114Z,2.73
2022-09-21T20:14:31.379Z,2.37
2022-09-21T20:17:02.097Z,2.50
2022-09-21T20:19:38.906Z,5.10
2022-09-21T20:22:15.028Z,11.00
2022-09-21T20:24:51.865Z,3.80
2022-09-21T20:27:30.234Z,3.20
2022-09-21T20:29:58.090Z,6.17
2022-09-21T20:32:25.956Z,11.27
2022-09-21T20:34:54.128Z,13.63
2022-09-21T20:37:23.638Z,16.60
2022-09-21T20:39:51.715Z,16.77
2022-09-21T20:42:23.346Z,16.90
2022-09-21T20:44:51.272Z,15.37
2022-09-21T20:47:19.888Z,14.00
2022-09-21T20:49:48.265Z,14.73
2022-09-21T20:52:17.610Z,10.97
2022-09-21T20:54:49.561Z,10.10
2022-09-21T20:57:17.828Z,9.23
2022-09-21T20:59:45.728Z,7.57
2022-09-21T21:02:16.467Z,9.20
2022-09-21T21:04:44.391Z,7.67
2022-09-21T21:07:12.733Z,7.03
2022-09-21T21:09:40.915Z,5.57
2022-09-21T21:12:10.752Z,6.33
2022-09-21T21:14:38.564Z,5.70
2022-09-21T21:17:06.641Z,7.20
2022-09-21T21:19:34.743Z,5.77
2022-09-21T21:22:02.627Z,5.53
2022-09-21T21:24:43.560Z,4.20
2022-09-21T21:27:16.263Z,4.63
2022-09-21T21:29:46.036Z,3.63
2022-09-21T21:32:14.422Z,3.50
2022-09-21T21:34:42.615Z,3.87
2022-09-21T21:37:10.966Z,5.53
2022-09-21T21:39:38.764Z,7.00
2022-09-21T21:42:06.956Z,11.63
2022-09-21T21:44:36.137Z,12.50
2022-09-21T21:47:27.412Z,8.00
2022-09-21T21:49:52.083Z,5.43
2022-09-21T21:52:19.984Z,5.40
2022-09-21T21:54:47.776Z,3.70
2022-09-21T21:57:15.578Z,6.93
2022-09-21T21:59:44.771Z,5.53
2022-09-21T22:02:12.676Z,4.77
2022-09-21T22:04:40.915Z,8.73
2022-09-21T22:07:08.781Z,7.13
2022-09-21T22:09:36.629Z,3.90
2022-09-21T22:12:04.676Z,5.37
2022-09-21T22:14:32.520Z,8.07
2022-09-21T22:17:01.771Z,4.83
2022-09-21T22:19:29.663Z,8.60
2022-09-21T22:21:57.647Z,4.93
2022-09-21T22:24:25.491Z,3.97
2022-09-21T22:26:53.324Z,4.77
2022-09-21T22:29:21.261Z,4.40
2022-09-21T22:31:50.344Z,3.87
2022-09-21T22:34:20.182Z,3.17
2022-09-21T22:36:48.024Z,3.87
2022-09-21T22:39:15.840Z,4.37
2022-09-21T22:41:44.232Z,3.20
2022-09-21T22:44:12.460Z,3.57
2022-09-21T22:46:40.931Z,5.77
2022-09-21T22:49:09.106Z,3.07
2022-09-21T22:51:38.803Z,4.13
2022-09-21T22:54:07.004Z,4.17
2022-09-21T22:56:35.688Z,3.33
2022-09-21T22:59:05.821Z,4.20
2022-09-21T23:01:35.293Z,3.37
2022-09-21T23:04:05.150Z,2.77
2022-09-21T23:06:34.381Z,2.70
2022-09-21T23:09:09.383Z,2.77
2022-09-21T23:11:39.112Z,3.50
2022-09-21T23:14:07.000Z,3.03
2022-09-21T23:16:35.079Z,4.23
2022-09-21T23:19:03.088Z,3.00
2022-09-21T23:21:31.800Z,3.73
2022-09-21T23:24:01.844Z,3.43
2022-09-21T23:26:33.975Z,4.07
2022-09-21T23:29:05.391Z,3.70
2022-09-21T23:31:33.859Z,4.10
2022-09-21T23:34:07.286Z,3.07
2022-09-21T23:36:36.003Z,8.50
2022-09-21T23:39:05.205Z,3.03
2022-09-21T23:41:36.658Z,6.33
2022-09-21T23:44:04.966Z,3.53
2022-09-21T23:46:35.104Z,3.97
2022-09-21T23:49:03.079Z,3.67
2022-09-21T23:51:31.206Z,5.50
2022-09-21T23:53:59.257Z,4.00
2022-09-21T23:56:27.159Z,6.90
2022-09-21T23:58:56.666Z,4.20
